Time Latitude Longitude Accuracy (66% radius in meters) Altitude (meters) Speed (km/hour) Bearing (degrees) Battery (%) GPS flag
07:04:18 57.208994 60.116921 10.720000267029 311.08801269531 1.9199999570847 176.39999389648 88 1 delete
07:04:17 57.209014 60.116909 10.720000267029 310.18469238281 1.9199999570847 204.19999694824 88 1 delete
07:04:13 57.209109 60.116952 4.2880001068115 310.37426757812 1.9800000190735 181.5 88 1 delete
07:04:09 57.209210 60.116957 5.3600001335144 308.435546875 1.7200000286102 194.30000305176 88 1 delete
07:04:08 57.209233 60.116967 4.2880001068115 308.83093261719 1.710000038147 189.10000610352 88 1 delete
07:03:59 57.209414 60.117046 4.2880001068115 305.01391601562 1.8200000524521 182.10000610352 88 1 delete
07:03:57 57.209459 60.117062 4.2880001068115 304.15942382812 1.789999961853 169.69999694824 88 1 delete
07:03:54 57.209518 60.117053 4.2880001068115 305.2216796875 1.7799999713898 158.89999389648 88 1 delete
07:03:49 57.209617 60.117085 4.2880001068115 304.11950683594 1.7699999809265 202.19999694824 88 1 delete
07:03:47 57.209663 60.117151 4.2880001068115 304.80670166016 3.3499999046326 214.30000305176 88 1 delete
07:03:45 57.209691 60.117208 5.3600001335144 304.99267578125 1.7000000476837 204.60000610352 88 1 delete
07:03:38 57.209769 60.117300 4.2880001068115 307.48449707031 0.23999999463558 206.30000305176 88 1 delete
07:03:36 57.209803 60.117325 4.2880001068115 305.90856933594 1.7999999523163 187.30000305176 88 1 delete
07:03:33 57.209864 60.117353 4.2880001068115 305.73449707031 1.710000038147 188.19999694824 88 1 delete
07:03:29 57.209953 60.117399 4.2880001068115 304.49066162109 1.8300000429153 171 88 1 delete
07:03:25 57.210024 60.117392 4.2880001068115 302.55200195312 1.9299999475479 153.19999694824 88 1 delete
07:03:24 57.210043 60.117383 4.2880001068115 302.92248535156 1.9700000286102 160.89999389648 88 1 delete
07:03:19 57.210145 60.117403 4.2880001068115 299.83703613281 1.9299999475479 168.60000610352 88 1 delete
07:03:15 57.210214 60.117545 4.2880001068115 297.4736328125 1.789999961853 228.10000610352 88 1 delete
07:03:11 57.210286 60.117675 4.2880001068115 296.89794921875 1.960000038147 221.19999694824 88 1 delete
07:03:07 57.210366 60.117790 5.3600001335144 298.8369140625 1.9099999666214 199.69999694824 88 1 delete
07:03:05 57.210408 60.117837 5.3600001335144 298.47705078125 2.0099999904633 209.30000305176 88 1 delete
07:03:03 57.210451 60.117900 5.3600001335144 298.3623046875 2.1900000572205 197.39999389648 88 1 delete
07:03:00 57.210517 60.118022 6.4320001602173 295.90167236328 2.1400001049042 224.30000305176 88 1 delete
07:02:56 57.210595 60.118172 5.3600001335144 293.84039306641 2.2400000095367 213.39999389648 88 1 delete
07:02:54 57.210637 60.118240 5.3600001335144 294.23583984375 2.2300000190735 209.89999389648 88 1 delete
07:02:52 57.210671 60.118289 5.3600001335144 294.56970214844 2.0999999046326 210.5 88 1 delete
07:02:47 57.210759 60.118378 4.2880001068115 297.61157226562 2.1099998950958 221.39999389648 88 1 delete
07:02:44 57.210808 60.118429 4.2880001068115 299.99780273438 2.3499999046326 187.19999694824 88 1 delete
07:02:42 57.210852 60.118457 4.2880001068115 299.01995849609 2.5799999237061 182.10000610352 88 1 delete
07:02:37 57.210942 60.118548 4.2880001068115 300.43188476562 1.5599999427795 195.30000305176 88 1 delete
07:02:34 57.210978 60.118558 4.2880001068115 300.5771484375 1.5099999904633 137.89999389648 88 1 delete
07:02:30 57.211028 60.118491 5.3600001335144 297.65283203125 1.5800000429153 107.5 88 1 delete
07:02:23 57.211110 60.118426 4.2880001068115 295.26611328125 0 0 88 1 delete
07:02:19 57.211215 60.118560 4.2880001068115 296.65600585938 1.3799999952316 220.60000610352 88 1 delete
07:02:14 57.211287 60.118716 4.2880001068115 294.65289306641 1.3099999427795 233.80000305176 88 1 delete
07:02:13 57.211295 60.118736 4.2880001068115 295.37408447266 1.3300000429153 234.69999694824 88 1 delete
07:02:06 57.211358 60.118851 9.6480007171631 300.53594970703 1.1900000572205 213 88 1 delete
07:02:02 57.211398 60.118893 9.6480007171631 300.84783935547 1.2300000190735 198.69999694824 88 1 delete
07:01:58 57.211431 60.118972 9.6480007171631 300.74829101562 1.1699999570847 209 88 1 delete
07:01:52 57.211508 60.118955 9.6480007171631 298.53344726562 1.2400000095367 157.89999389648 88 1 delete
07:01:51 57.211523 60.118943 10.720000267029 297.74694824219 1.2599999904633 139.69999694824 88 1 delete
07:01:46 57.211595 60.118844 9.6480007171631 295.37231445312 1.3099999427795 141.39999389648 88 1 delete
07:01:42 57.211653 60.118746 10.720000267029 294.64642333984 1.3899999856949 134.60000610352 88 1 delete
07:01:40 57.211677 60.118708 9.6480007171631 294.82849121094 1.3999999761581 133.80000305176 88 1 delete
07:01:35 57.211760 60.118613 9.6480007171631 291.83020019531 1.5499999523163 132.89999389648 88 1 delete
07:01:31 57.211801 60.118518 9.6480007171631 290.60461425781 1.6100000143051 123.69999694824 88 1 delete
07:01:29 57.211817 60.118464 9.6480007171631 290.50268554688 1.5900000333786 123.40000152588 88 1 delete
07:01:20 57.211869 60.118324 9.6480007171631 290.41265869141 0 0 88 1 delete
07:01:10 57.211868 60.118320 3.2160000801086 290.60339355469 0 0 88 1 delete